Tucana — PBAQ — position and weather

sailwx.info

Track history (hours):
 
Tides and Currents Weather Stations Pressure Air Temp Water Temp Dewpoint Dewpoint Depression Visibility Wind Speed Wind Dir Waves Ship Positions

Tucana

Last reported at 2018-Jan-12 14:17 UTC. Time now 2018-Jan-18 07:23 UTC.
Position N 51°28' E 003°42'.

Length 88 m; draft 4.7 m.

Type: Ship. MMSI: 245050000.

Date/timePositionNaut miles runAvg speedWind from/ knotsBaromVisibWave heightAir tempDewpointWater temp
2018-Jan-12 14:17N 51°28' E 003°42'0 0.0
2018-Jan-12 13:59N 51°28' E 003°42'0 0.0
2018-Jan-12 12:47N 51°28' E 003°42'0 0.0
2018-Jan-12 12:26N 51°28' E 003°42'0 0.0
2018-Jan-12 11:34N 51°28' E 003°42'0 0.0
2018-Jan-12 11:22N 51°28' E 003°42'0 0.0
2018-Jan-12 10:58N 51°28' E 003°42'0 0.0
2018-Jan-12 10:22N 51°28' E 003°42'0 0.0
2018-Jan-12 08:39N 51°28' E 003°42'0 0.0
2018-Jan-12 08:27N 51°28' E 003°42'0 0.0
2018-Jan-12 07:45N 51°28' E 003°42'0 0.0
2018-Jan-12 07:20N 51°28' E 003°42'0 0.0
2018-Jan-12 06:56N 51°28' E 003°42'0 0.0
2018-Jan-12 06:14N 51°28' E 003°42'0 0.0
2018-Jan-12 05:56N 51°28' E 003°42'0 0.0
2018-Jan-12 05:14N 51°28' E 003°42'0 0.0
2018-Jan-12 04:55N 51°28' E 003°42'0 0.0
2018-Jan-12 04:25N 51°28' E 003°42'0 0.0
2018-Jan-12 03:37N 51°28' E 003°42'0 0.0
2018-Jan-12 03:19N 51°28' E 003°42'0 0.0
2018-Jan-12 02:06N 51°28' E 003°42'0 0.0
2018-Jan-12 01:54N 51°28' E 003°42'0 0.0
2018-Jan-12 01:30N 51°28' E 003°42'0 0.0
2018-Jan-12 01:00N 51°28' E 003°42'0 0.0
2018-Jan-11 23:41N 51°28' E 003°42'0 0.0
2018-Jan-11 23:19N 51°28' E 003°42'0 0.0
2018-Jan-11 22:59N 51°28' E 003°42'0 0.0
2018-Jan-11 22:29N 51°28' E 003°42'0 0.0
2018-Jan-11 21:46N 51°28' E 003°42'0 0.0
2018-Jan-11 19:27N 51°28' E 003°42'0 0.0
2018-Jan-11 18:33N 51°28' E 003°42'0 0.0
2018-Jan-11 18:27N 51°28' E 003°42'0 0.0
2018-Jan-11 17:57N 51°28' E 003°42'0 0.0
2018-Jan-11 16:44N 51°28' E 003°42'0 0.0
2018-Jan-11 15:07N 51°28' E 003°42'0 0.0
2018-Jan-11 13:30N 51°28' E 003°42'1 2.6
2018-Jan-11 13:00N 51°27' E 003°40'4 7.0
2018-Jan-11 12:30N 51°26' E 003°35'4 7.7
2018-Jan-11 12:00N 51°28' E 003°30'4 8.8
2018-Jan-11 11:30N 51°32' E 003°25'5 9.3
2018-Jan-11 10:59N 51°36' E 003°22'610.2
2018-Jan-11 10:23N 51°41' E 003°17'6 7.3
2018-Jan-11 09:31N 51°47' E 003°12'0 7.4
2018-Jan-11 09:29N 51°47' E 003°11'24 4.0
2018-Jan-11 03:28N 52°02' E 003°41'5 9.7
2018-Jan-11 02:59N 52°02' E 003°49'4 9.5
2018-Jan-11 02:30N 52°02' E 003°56'611.2
2018-Jan-11 02:00N 51°59' E 004°04'713.7
2018-Jan-11 01:30N 51°56' E 004°14'611.8
2018-Jan-11 01:00N 51°51' E 004°21'4 9.0
2018-Jan-11 00:30N 51°50' E 004°27'4 9.0
2018-Jan-11 00:00N 51°49' E 004°34'2 3.6
2018-Jan-10 23:31N 51°48' E 004°37'0 0.0
2018-Jan-10 23:00N 51°48' E 004°37'0 0.0
2018-Jan-10 22:29N 51°48' E 004°37'0 0.0
2018-Jan-10 21:59N 51°48' E 004°37'0 0.0
2018-Jan-10 21:31N 51°48' E 004°37'0 0.0
2018-Jan-10 21:00N 51°48' E 004°37'0 0.0
2018-Jan-10 20:31N 51°48' E 004°37'0 0.0
2018-Jan-10 20:00N 51°48' E 004°37'0 0.0
2018-Jan-10 19:28N 51°48' E 004°37'0 0.0
2018-Jan-10 18:58N 51°48' E 004°37'0 0.0
2018-Jan-10 18:30N 51°48' E 004°37'0 0.0
2018-Jan-10 18:00N 51°48' E 004°37'0 0.0
2018-Jan-10 17:30N 51°48' E 004°37'0 0.0
2018-Jan-10 16:59N 51°48' E 004°37'0 0.0
2018-Jan-10 16:30N 51°48' E 004°37'0 0.0
2018-Jan-10 15:59N 51°48' E 004°37'0 0.0
2018-Jan-10 15:31N 51°48' E 004°37'0 0.0
2018-Jan-10 15:00N 51°48' E 004°37'0 0.0
2018-Jan-10 14:31N 51°48' E 004°37'0 0.0
2018-Jan-10 14:00N 51°48' E 004°37'0 0.0
2018-Jan-10 13:30N 51°48' E 004°37'0 0.0
2018-Jan-10 13:01N 51°48' E 004°37'0 0.0
2018-Jan-10 12:30N 51°48' E 004°37'0 0.0
2018-Jan-10 12:01N 51°48' E 004°37'0 0.0
2018-Jan-10 11:30N 51°48' E 004°37'0 0.0
2018-Jan-10 10:59N 51°48' E 004°37'0 0.0
2018-Jan-10 10:31N 51°48' E 004°37'0 0.0
2018-Jan-10 09:55N 51°48' E 004°37'0 0.0
2018-Jan-10 09:30N 51°48' E 004°37'0 0.0
2018-Jan-10 09:00N 51°48' E 004°37'0 0.0
2018-Jan-10 08:29N 51°48' E 004°37'0 0.0
2018-Jan-10 08:00N 51°48' E 004°37'0 0.0
2018-Jan-10 07:30N 51°48' E 004°37'0 0.0
2018-Jan-10 06:56N 51°48' E 004°37'0 0.0
2018-Jan-10 06:30N 51°48' E 004°37'0 0.0
2018-Jan-10 06:01N 51°48' E 004°37'0 0.0
2018-Jan-10 05:25N 51°48' E 004°37'0 0.0
2018-Jan-10 05:00N 51°48' E 004°37'0 0.0
2018-Jan-10 04:31N 51°48' E 004°37'0 0.0
2018-Jan-10 04:00N 51°48' E 004°37'0 0.0
2018-Jan-10 03:31N 51°48' E 004°37'0 0.0
2018-Jan-10 03:00N 51°48' E 004°37'0 0.0
2018-Jan-10 02:28N 51°48' E 004°37'0 0.0
2018-Jan-10 02:00N 51°48' E 004°37'0 0.0
2018-Jan-10 01:30N 51°48' E 004°37'0 0.0
2018-Jan-10 01:01N 51°48' E 004°37'0 0.0
2018-Jan-10 00:28N 51°48' E 004°37'0 0.0
2018-Jan-10 00:00N 51°48' E 004°37'0 0.0
2018-Jan-09 23:30N 51°48' E 004°37'0 0.0
2018-Jan-09 22:59N 51°48' E 004°37'0 0.0
2018-Jan-09 22:30N 51°48' E 004°37'0 0.0
2018-Jan-09 22:00N 51°48' E 004°37'0 0.0
2018-Jan-09 21:25N 51°48' E 004°37'0 0.0
2018-Jan-09 20:57N 51°48' E 004°37'0 0.0
2018-Jan-09 20:31N 51°48' E 004°37'0 0.0
2018-Jan-09 20:00N 51°48' E 004°37'0 0.0
2018-Jan-09 19:27N 51°48' E 004°37'0 0.0
2018-Jan-09 18:58N 51°48' E 004°37'0 0.0
2018-Jan-09 18:27N 51°48' E 004°37'0 0.0
2018-Jan-09 18:00N 51°48' E 004°37'0 0.0
2018-Jan-09 17:27N 51°48' E 004°37'0 0.0
2018-Jan-09 17:01N 51°48' E 004°37'0 0.0
2018-Jan-09 16:30N 51°48' E 004°37'0 0.0
2018-Jan-09 15:59N 51°48' E 004°37'0 0.0
2018-Jan-09 15:28N 51°48' E 004°37'0 0.0
2018-Jan-09 15:00N 51°48' E 004°37'0 0.0
2018-Jan-09 14:29N 51°48' E 004°37'0 0.0
2018-Jan-09 13:52N 51°48' E 004°37'0 0.0
2018-Jan-09 13:30N 51°48' E 004°37'0 0.0
2018-Jan-09 12:59N 51°48' E 004°37'0 0.0
2018-Jan-09 12:31N 51°48' E 004°37'0 0.0
2018-Jan-09 11:58N 51°48' E 004°37'0 0.0
2018-Jan-09 11:30N 51°48' E 004°37'0 0.0
2018-Jan-09 11:00N 51°48' E 004°37'2 4.1
2018-Jan-09 10:30N 51°49' E 004°34'4 7.4
2018-Jan-09 10:00N 51°50' E 004°28'4 9.0
2018-Jan-09 09:30N 51°51' E 004°21'4 8.4
2018-Jan-09 09:00N 51°54' E 004°17'5 9.1
2018-Jan-09 08:30N 51°57' E 004°11'4 8.9
2018-Jan-09 08:00N 51°59' E 004°05'5 9.0
2018-Jan-09 07:30N 51°60' E 003°57'510.6
2018-Jan-09 07:00N 51°59' E 003°49'26 9.9
2018-Jan-09 04:19N 51°51' E 003°08'3 9.0
2018-Jan-09 04:00N 51°51' E 003°03'5 8.8
2018-Jan-09 03:29N 51°49' E 002°56'4 8.4
2018-Jan-09 03:00N 51°47' E 002°50'4 8.1
2018-Jan-09 02:29N 51°46' E 002°44'16 7.5
2018-Jan-09 00:21N 51°35' E 002°24'3 7.8
2018-Jan-08 23:59N 51°33' E 002°22'4 8.0
2018-Jan-08 23:30N 51°30' E 002°18'4 8.4
2018-Jan-08 23:00N 51°26' E 002°15'4 8.6
2018-Jan-08 22:30N 51°22' E 002°12'5 8.8
2018-Jan-08 21:59N 51°18' E 002°07'4 9.1
2018-Jan-08 21:30N 51°15' E 002°04'5 9.1
2018-Jan-08 21:00N 51°12' E 001°58'5 9.5
2018-Jan-08 20:30N 51°09' E 001°52'5 9.6
2018-Jan-08 20:00N 51°06' E 001°47'5 9.6
2018-Jan-08 19:30N 51°02' E 001°41'6810.3
2018-Jan-08 12:51N 50°24' E 000°12'610.7
2018-Jan-08 12:17N 50°22' E 000°03'510.5
2018-Jan-08 11:50N 50°21' W 000°04'510.4
2018-Jan-08 11:20N 50°21' W 000°13'99 5.2
2018-Jan-07 16:13N 50°09' W 002°46'1 2.5
2018-Jan-07 15:54N 50°09' W 002°47'4 3.4
2018-Jan-07 14:50N 50°09' W 002°53'1 3.8
2018-Jan-07 14:29N 50°09' W 002°55'4 4.4
2018-Jan-07 13:40N 50°09' W 003°01'1 4.5
2018-Jan-07 13:29N 50°08' W 003°02'2 4.7
2018-Jan-07 13:00N 50°08' W 003°05'2 4.7
2018-Jan-07 12:30N 50°08' W 003°09'2 4.8
2018-Jan-07 12:00N 50°08' W 003°13'2 4.8
2018-Jan-07 11:30N 50°08' W 003°16'2 4.9
2018-Jan-07 11:00N 50°07' W 003°20'3 5.1
2018-Jan-07 10:30N 50°07' W 003°24'3 5.2
2018-Jan-07 10:00N 50°07' W 003°28'3 5.4
2018-Jan-07 09:30N 50°07' W 003°33'3 5.4
2018-Jan-07 08:58N 50°06' W 003°37'2 5.1
2018-Jan-07 08:30N 50°06' W 003°41'3 5.0
2018-Jan-07 08:00N 50°05' W 003°44'3 5.0
2018-Jan-07 07:30N 50°05' W 003°48'3 4.4
2018-Jan-07 06:54N 50°04' W 003°52'2 4.3
2018-Jan-07 06:30N 50°04' W 003°55'3 4.3
2018-Jan-07 05:45N 50°04' W 003°60'1 4.3
2018-Jan-07 05:29N 50°03' W 004°01'2 3.9
2018-Jan-07 05:00N 50°03' W 004°04'6 4.0
2018-Jan-07 03:30N 50°01' W 004°13'2 4.0
2018-Jan-07 03:00N 50°01' W 004°16'2 4.2
2018-Jan-07 02:30N 50°00' W 004°20'3 4.5
2018-Jan-07 01:55N 49°60' W 004°23'2 4.5
2018-Jan-07 01:25N 49°59' W 004°27'5 5.0
2018-Jan-07 00:28N 49°58' W 004°34'18 6.0
2018-Jan-06 21:26N 49°56' W 005°02'133 7.9
2018-Jan-06 04:38N 52°06' W 005°55'712.1
2018-Jan-06 04:05N 52°12' W 005°54'111.9
2018-Jan-06 03:59N 52°13' W 005°54'611.8
2018-Jan-06 03:30N 52°19' W 005°53'611.4
2018-Jan-06 02:59N 52°25' W 005°53'510.9
2018-Jan-06 02:30N 52°30' W 005°53'510.5
2018-Jan-06 02:00N 52°36' W 005°53'20 8.9
2018-Jan-05 23:44N 52°56' W 005°52'2 7.5
2018-Jan-05 23:30N 52°57' W 005°52'5 7.0
2018-Jan-05 22:45N 53°03' W 005°52'3 7.6
2018-Jan-05 22:19N 53°06' W 005°55'2 7.2
2018-Jan-05 22:00N 53°08' W 005°56'4 7.5
2018-Jan-05 21:30N 53°11' W 005°58'4 8.3
2018-Jan-05 21:00N 53°15' W 006°01'4 8.8
2018-Jan-05 20:29N 53°19' W 006°04'5 8.9
2018-Jan-05 19:57N 53°21' W 006°11'1 1.7
2018-Jan-05 19:28N 53°21' W 006°13'0 0.0
2018-Jan-05 19:00N 53°21' W 006°13'0 0.0
2018-Jan-05 17:39N 53°21' W 006°13'0 0.0
2018-Jan-05 17:30N 53°21' W 006°13'0 0.0
2018-Jan-05 16:23N 53°21' W 006°13'0 0.0
2018-Jan-05 15:47N 53°21' W 006°13'0 0.0
2018-Jan-05 14:28N 53°21' W 006°13'0 0.0
2018-Jan-05 13:49N 53°21' W 006°13'0 0.0
2018-Jan-05 13:13N 53°21' W 006°13'0 0.0
2018-Jan-05 12:58N 53°21' W 006°13'0 0.0
2018-Jan-05 12:22N 53°21' W 006°13'0 0.0
2018-Jan-05 11:57N 53°21' W 006°13'0 0.0
2018-Jan-05 11:18N 53°21' W 006°13'0 0.0
2018-Jan-05 10:42N 53°21' W 006°13'0 0.0
2018-Jan-05 10:30N 53°21' W 006°13'0 0.0
2018-Jan-05 10:00N 53°21' W 006°13'0 0.0
2018-Jan-05 09:23N 53°21' W 006°13'0 0.0
2018-Jan-05 07:25N 53°21' W 006°13'0 0.0
2018-Jan-05 06:51N 53°21' W 006°13'0 0.0
2018-Jan-05 05:15N 53°21' W 006°13'0 0.0
2018-Jan-05 04:45N 53°21' W 006°13'0 0.0
2018-Jan-05 01:17N 53°21' W 006°13'0 0.0
2018-Jan-05 00:41N 53°21' W 006°13'0 0.0
2018-Jan-05 00:12N 53°21' W 006°13'0 0.0
2018-Jan-04 23:49N 53°21' W 006°13'0 0.0
2018-Jan-04 22:40N 53°21' W 006°13'0 0.0
2018-Jan-04 22:06N 53°21' W 006°13'0 0.0
2018-Jan-04 20:15N 53°21' W 006°13'0 0.1
2018-Jan-04 19:58N 53°21' W 006°13'3 6.1
2018-Jan-04 19:27N 53°21' W 006°07'5 9.9
2018-Jan-04 18:59N 53°18' W 006°01'511.0
2018-Jan-04 18:29N 53°12' W 005°60'510.7
2018-Jan-04 17:59N 53°07' W 005°58'510.3
2018-Jan-04 17:30N 53°02' W 005°57'5 9.7
2018-Jan-04 17:00N 52°57' W 005°56'30 8.8
2018-Jan-04 13:34N 52°28' W 006°07'1 9.0
2018-Jan-04 13:27N 52°27' W 006°07'4 9.2
2018-Jan-04 13:00N 52°23' W 006°09'5 9.2
2018-Jan-04 12:30N 52°18' W 006°11'5 9.6
2018-Jan-04 12:00N 52°14' W 006°14'510.0
2018-Jan-04 11:30N 52°10' W 006°18'510.6
2018-Jan-04 11:00N 52°06' W 006°25'611.6
2018-Jan-04 10:30N 52°04' W 006°33'611.4
2018-Jan-04 10:00N 52°03' W 006°43'611.9
2018-Jan-04 09:30N 52°04' W 006°52'4 8.1
2018-Jan-04 09:00N 52°06' W 006°58'2 4.5
2018-Jan-04 08:30N 52°08' W 006°58'2 4.5
2018-Jan-04 08:00N 52°10' W 006°57'4 8.1
2018-Jan-04 07:30N 52°14' W 006°57'3 6.7
2018-Jan-04 07:00N 52°17' W 007°00'4 7.6
2018-Jan-04 06:30N 52°20' W 006°60'  
Track history (hours):
 
Tides and Currents Weather Stations Pressure Air Temp Water Temp Dewpoint Dewpoint Depression Visibility Wind Speed Wind Dir Waves Ship Positions

Tucana

Last reported at 2018-Jan-12 14:17 UTC. Time now 2018-Jan-18 07:23 UTC.
Position N 51°28' E 003°42'.

Length 88 m; draft 4.7 m.

Type: Ship. MMSI: 245050000.

Date/timePositionNaut miles runAvg speedWind from/ knotsBaromVisibWave heightAir tempDewpointWater temp
2018-Jan-12 14:17N 51°28' E 003°42'0 0.0
2018-Jan-12 13:59N 51°28' E 003°42'0 0.0
2018-Jan-12 12:47N 51°28' E 003°42'0 0.0
2018-Jan-12 12:26N 51°28' E 003°42'0 0.0
2018-Jan-12 11:34N 51°28' E 003°42'0 0.0
2018-Jan-12 11:22N 51°28' E 003°42'0 0.0
2018-Jan-12 10:58N 51°28' E 003°42'0 0.0
2018-Jan-12 10:22N 51°28' E 003°42'0 0.0
2018-Jan-12 08:39N 51°28' E 003°42'0 0.0
2018-Jan-12 08:27N 51°28' E 003°42'0 0.0
2018-Jan-12 07:45N 51°28' E 003°42'0 0.0
2018-Jan-12 07:20N 51°28' E 003°42'0 0.0
2018-Jan-12 06:56N 51°28' E 003°42'0 0.0
2018-Jan-12 06:14N 51°28' E 003°42'0 0.0
2018-Jan-12 05:56N 51°28' E 003°42'0 0.0
2018-Jan-12 05:14N 51°28' E 003°42'0 0.0
2018-Jan-12 04:55N 51°28' E 003°42'0 0.0
2018-Jan-12 04:25N 51°28' E 003°42'0 0.0
2018-Jan-12 03:37N 51°28' E 003°42'0 0.0
2018-Jan-12 03:19N 51°28' E 003°42'0 0.0
2018-Jan-12 02:06N 51°28' E 003°42'0 0.0
2018-Jan-12 01:54N 51°28' E 003°42'0 0.0
2018-Jan-12 01:30N 51°28' E 003°42'0 0.0
2018-Jan-12 01:00N 51°28' E 003°42'0 0.0
2018-Jan-11 23:41N 51°28' E 003°42'0 0.0
2018-Jan-11 23:19N 51°28' E 003°42'0 0.0
2018-Jan-11 22:59N 51°28' E 003°42'0 0.0
2018-Jan-11 22:29N 51°28' E 003°42'0 0.0
2018-Jan-11 21:46N 51°28' E 003°42'0 0.0
2018-Jan-11 19:27N 51°28' E 003°42'0 0.0
2018-Jan-11 18:33N 51°28' E 003°42'0 0.0
2018-Jan-11 18:27N 51°28' E 003°42'0 0.0
2018-Jan-11 17:57N 51°28' E 003°42'0 0.0
2018-Jan-11 16:44N 51°28' E 003°42'0 0.0
2018-Jan-11 15:07N 51°28' E 003°42'0 0.0
2018-Jan-11 13:30N 51°28' E 003°42'1 2.6
2018-Jan-11 13:00N 51°27' E 003°40'4 7.0
2018-Jan-11 12:30N 51°26' E 003°35'4 7.7
2018-Jan-11 12:00N 51°28' E 003°30'4 8.8
2018-Jan-11 11:30N 51°32' E 003°25'5 9.3
2018-Jan-11 10:59N 51°36' E 003°22'610.2
2018-Jan-11 10:23N 51°41' E 003°17'6 7.3
2018-Jan-11 09:31N 51°47' E 003°12'0 7.4
2018-Jan-11 09:29N 51°47' E 003°11'24 4.0
2018-Jan-11 03:28N 52°02' E 003°41'5 9.7
2018-Jan-11 02:59N 52°02' E 003°49'4 9.5
2018-Jan-11 02:30N 52°02' E 003°56'611.2
2018-Jan-11 02:00N 51°59' E 004°04'713.7
2018-Jan-11 01:30N 51°56' E 004°14'611.8
2018-Jan-11 01:00N 51°51' E 004°21'4 9.0
2018-Jan-11 00:30N 51°50' E 004°27'4 9.0
2018-Jan-11 00:00N 51°49' E 004°34'2 3.6
2018-Jan-10 23:31N 51°48' E 004°37'0 0.0
2018-Jan-10 23:00N 51°48' E 004°37'0 0.0
2018-Jan-10 22:29N 51°48' E 004°37'0 0.0
2018-Jan-10 21:59N 51°48' E 004°37'0 0.0
2018-Jan-10 21:31N 51°48' E 004°37'0 0.0
2018-Jan-10 21:00N 51°48' E 004°37'0 0.0
2018-Jan-10 20:31N 51°48' E 004°37'0 0.0
2018-Jan-10 20:00N 51°48' E 004°37'0 0.0
2018-Jan-10 19:28N 51°48' E 004°37'0 0.0
2018-Jan-10 18:58N 51°48' E 004°37'0 0.0
2018-Jan-10 18:30N 51°48' E 004°37'0 0.0
2018-Jan-10 18:00N 51°48' E 004°37'0 0.0
2018-Jan-10 17:30N 51°48' E 004°37'0 0.0
2018-Jan-10 16:59N 51°48' E 004°37'0 0.0
2018-Jan-10 16:30N 51°48' E 004°37'0 0.0
2018-Jan-10 15:59N 51°48' E 004°37'0 0.0
2018-Jan-10 15:31N 51°48' E 004°37'0 0.0
2018-Jan-10 15:00N 51°48' E 004°37'0 0.0
2018-Jan-10 14:31N 51°48' E 004°37'0 0.0
2018-Jan-10 14:00N 51°48' E 004°37'0 0.0
2018-Jan-10 13:30N 51°48' E 004°37'0 0.0
2018-Jan-10 13:01N 51°48' E 004°37'0 0.0
2018-Jan-10 12:30N 51°48' E 004°37'0 0.0
2018-Jan-10 12:01N 51°48' E 004°37'0 0.0
2018-Jan-10 11:30N 51°48' E 004°37'0 0.0
2018-Jan-10 10:59N 51°48' E 004°37'0 0.0
2018-Jan-10 10:31N 51°48' E 004°37'0 0.0
2018-Jan-10 09:55N 51°48' E 004°37'0 0.0
2018-Jan-10 09:30N 51°48' E 004°37'0 0.0
2018-Jan-10 09:00N 51°48' E 004°37'0 0.0
2018-Jan-10 08:29N 51°48' E 004°37'0 0.0
2018-Jan-10 08:00N 51°48' E 004°37'0 0.0
2018-Jan-10 07:30N 51°48' E 004°37'0 0.0
2018-Jan-10 06:56N 51°48' E 004°37'0 0.0
2018-Jan-10 06:30N 51°48' E 004°37'0 0.0
2018-Jan-10 06:01N 51°48' E 004°37'0 0.0
2018-Jan-10 05:25N 51°48' E 004°37'0 0.0
2018-Jan-10 05:00N 51°48' E 004°37'0 0.0
2018-Jan-10 04:31N 51°48' E 004°37'0 0.0
2018-Jan-10 04:00N 51°48' E 004°37'0 0.0
2018-Jan-10 03:31N 51°48' E 004°37'0 0.0
2018-Jan-10 03:00N 51°48' E 004°37'0 0.0
2018-Jan-10 02:28N 51°48' E 004°37'0 0.0
2018-Jan-10 02:00N 51°48' E 004°37'0 0.0
2018-Jan-10 01:30N 51°48' E 004°37'0 0.0
2018-Jan-10 01:01N 51°48' E 004°37'0 0.0
2018-Jan-10 00:28N 51°48' E 004°37'0 0.0
2018-Jan-10 00:00N 51°48' E 004°37'0 0.0
2018-Jan-09 23:30N 51°48' E 004°37'0 0.0
2018-Jan-09 22:59N 51°48' E 004°37'0 0.0
2018-Jan-09 22:30N 51°48' E 004°37'0 0.0
2018-Jan-09 22:00N 51°48' E 004°37'0 0.0
2018-Jan-09 21:25N 51°48' E 004°37'0 0.0
2018-Jan-09 20:57N 51°48' E 004°37'0 0.0
2018-Jan-09 20:31N 51°48' E 004°37'0 0.0
2018-Jan-09 20:00N 51°48' E 004°37'0 0.0
2018-Jan-09 19:27N 51°48' E 004°37'0 0.0
2018-Jan-09 18:58N 51°48' E 004°37'0 0.0
2018-Jan-09 18:27N 51°48' E 004°37'0 0.0
2018-Jan-09 18:00N 51°48' E 004°37'0 0.0
2018-Jan-09 17:27N 51°48' E 004°37'0 0.0
2018-Jan-09 17:01N 51°48' E 004°37'0 0.0
2018-Jan-09 16:30N 51°48' E 004°37'0 0.0
2018-Jan-09 15:59N 51°48' E 004°37'0 0.0
2018-Jan-09 15:28N 51°48' E 004°37'0 0.0
2018-Jan-09 15:00N 51°48' E 004°37'0 0.0
2018-Jan-09 14:29N 51°48' E 004°37'0 0.0
2018-Jan-09 13:52N 51°48' E 004°37'0 0.0
2018-Jan-09 13:30N 51°48' E 004°37'0 0.0
2018-Jan-09 12:59N 51°48' E 004°37'0 0.0
2018-Jan-09 12:31N 51°48' E 004°37'0 0.0
2018-Jan-09 11:58N 51°48' E 004°37'0 0.0
2018-Jan-09 11:30N 51°48' E 004°37'0 0.0
2018-Jan-09 11:00N 51°48' E 004°37'2 4.1
2018-Jan-09 10:30N 51°49' E 004°34'4 7.4
2018-Jan-09 10:00N 51°50' E 004°28'4 9.0
2018-Jan-09 09:30N 51°51' E 004°21'4 8.4
2018-Jan-09 09:00N 51°54' E 004°17'5 9.1
2018-Jan-09 08:30N 51°57' E 004°11'4 8.9
2018-Jan-09 08:00N 51°59' E 004°05'5 9.0
2018-Jan-09 07:30N 51°60' E 003°57'510.6
2018-Jan-09 07:00N 51°59' E 003°49'26 9.9
2018-Jan-09 04:19N 51°51' E 003°08'3 9.0
2018-Jan-09 04:00N 51°51' E 003°03'5 8.8
2018-Jan-09 03:29N 51°49' E 002°56'4 8.4
2018-Jan-09 03:00N 51°47' E 002°50'4 8.1
2018-Jan-09 02:29N 51°46' E 002°44'16 7.5
2018-Jan-09 00:21N 51°35' E 002°24'3 7.8
2018-Jan-08 23:59N 51°33' E 002°22'4 8.0
2018-Jan-08 23:30N 51°30' E 002°18'4 8.4
2018-Jan-08 23:00N 51°26' E 002°15'4 8.6
2018-Jan-08 22:30N 51°22' E 002°12'5 8.8
2018-Jan-08 21:59N 51°18' E 002°07'4 9.1
2018-Jan-08 21:30N 51°15' E 002°04'5 9.1
2018-Jan-08 21:00N 51°12' E 001°58'5 9.5
2018-Jan-08 20:30N 51°09' E 001°52'5 9.6
2018-Jan-08 20:00N 51°06' E 001°47'5 9.6
2018-Jan-08 19:30N 51°02' E 001°41'6810.3
2018-Jan-08 12:51N 50°24' E 000°12'610.7
2018-Jan-08 12:17N 50°22' E 000°03'510.5
2018-Jan-08 11:50N 50°21' W 000°04'510.4
2018-Jan-08 11:20N 50°21' W 000°13'99 5.2
2018-Jan-07 16:13N 50°09' W 002°46'1 2.5
2018-Jan-07 15:54N 50°09' W 002°47'4 3.4
2018-Jan-07 14:50N 50°09' W 002°53'1 3.8
2018-Jan-07 14:29N 50°09' W 002°55'4 4.4
2018-Jan-07 13:40N 50°09' W 003°01'1 4.5
2018-Jan-07 13:29N 50°08' W 003°02'2 4.7
2018-Jan-07 13:00N 50°08' W 003°05'2 4.7
2018-Jan-07 12:30N 50°08' W 003°09'2 4.8
2018-Jan-07 12:00N 50°08' W 003°13'2 4.8
2018-Jan-07 11:30N 50°08' W 003°16'2 4.9
2018-Jan-07 11:00N 50°07' W 003°20'3 5.1
2018-Jan-07 10:30N 50°07' W 003°24'3 5.2
2018-Jan-07 10:00N 50°07' W 003°28'3 5.4
2018-Jan-07 09:30N 50°07' W 003°33'3 5.4
2018-Jan-07 08:58N 50°06' W 003°37'2 5.1
2018-Jan-07 08:30N 50°06' W 003°41'3 5.0
2018-Jan-07 08:00N 50°05' W 003°44'3 5.0
2018-Jan-07 07:30N 50°05' W 003°48'3 4.4
2018-Jan-07 06:54N 50°04' W 003°52'2 4.3
2018-Jan-07 06:30N 50°04' W 003°55'3 4.3
2018-Jan-07 05:45N 50°04' W 003°60'1 4.3
2018-Jan-07 05:29N 50°03' W 004°01'2 3.9
2018-Jan-07 05:00N 50°03' W 004°04'6 4.0
2018-Jan-07 03:30N 50°01' W 004°13'2 4.0
2018-Jan-07 03:00N 50°01' W 004°16'2 4.2
2018-Jan-07 02:30N 50°00' W 004°20'3 4.5
2018-Jan-07 01:55N 49°60' W 004°23'2 4.5
2018-Jan-07 01:25N 49°59' W 004°27'5 5.0
2018-Jan-07 00:28N 49°58' W 004°34'18 6.0
2018-Jan-06 21:26N 49°56' W 005°02'133 7.9
2018-Jan-06 04:38N 52°06' W 005°55'712.1
2018-Jan-06 04:05N 52°12' W 005°54'111.9
2018-Jan-06 03:59N 52°13' W 005°54'611.8
2018-Jan-06 03:30N 52°19' W 005°53'611.4
2018-Jan-06 02:59N 52°25' W 005°53'510.9
2018-Jan-06 02:30N 52°30' W 005°53'510.5
2018-Jan-06 02:00N 52°36' W 005°53'20 8.9
2018-Jan-05 23:44N 52°56' W 005°52'2 7.5
2018-Jan-05 23:30N 52°57' W 005°52'5 7.0
2018-Jan-05 22:45N 53°03' W 005°52'3 7.6
2018-Jan-05 22:19N 53°06' W 005°55'2 7.2
2018-Jan-05 22:00N 53°08' W 005°56'4 7.5
2018-Jan-05 21:30N 53°11' W 005°58'4 8.3
2018-Jan-05 21:00N 53°15' W 006°01'4 8.8
2018-Jan-05 20:29N 53°19' W 006°04'5 8.9
2018-Jan-05 19:57N 53°21' W 006°11'1 1.7
2018-Jan-05 19:28N 53°21' W 006°13'0 0.0
2018-Jan-05 19:00N 53°21' W 006°13'0 0.0
2018-Jan-05 17:39N 53°21' W 006°13'0 0.0
2018-Jan-05 17:30N 53°21' W 006°13'0 0.0
2018-Jan-05 16:23N 53°21' W 006°13'0 0.0
2018-Jan-05 15:47N 53°21' W 006°13'0 0.0
2018-Jan-05 14:28N 53°21' W 006°13'0 0.0
2018-Jan-05 13:49N 53°21' W 006°13'0 0.0
2018-Jan-05 13:13N 53°21' W 006°13'0 0.0
2018-Jan-05 12:58N 53°21' W 006°13'0 0.0
2018-Jan-05 12:22N 53°21' W 006°13'0 0.0
2018-Jan-05 11:57N 53°21' W 006°13'0 0.0
2018-Jan-05 11:18N 53°21' W 006°13'0 0.0
2018-Jan-05 10:42N 53°21' W 006°13'0 0.0
2018-Jan-05 10:30N 53°21' W 006°13'0 0.0
2018-Jan-05 10:00N 53°21' W 006°13'0 0.0
2018-Jan-05 09:23N 53°21' W 006°13'0 0.0
2018-Jan-05 07:25N 53°21' W 006°13'0 0.0
2018-Jan-05 06:51N 53°21' W 006°13'0 0.0
2018-Jan-05 05:15N 53°21' W 006°13'0 0.0
2018-Jan-05 04:45N 53°21' W 006°13'0 0.0
2018-Jan-05 01:17N 53°21' W 006°13'0 0.0
2018-Jan-05 00:41N 53°21' W 006°13'0 0.0
2018-Jan-05 00:12N 53°21' W 006°13'0 0.0
2018-Jan-04 23:49N 53°21' W 006°13'0 0.0
2018-Jan-04 22:40N 53°21' W 006°13'0 0.0
2018-Jan-04 22:06N 53°21' W 006°13'0 0.0
2018-Jan-04 20:15N 53°21' W 006°13'0 0.1
2018-Jan-04 19:58N 53°21' W 006°13'3 6.1
2018-Jan-04 19:27N 53°21' W 006°07'5 9.9
2018-Jan-04 18:59N 53°18' W 006°01'511.0
2018-Jan-04 18:29N 53°12' W 005°60'510.7
2018-Jan-04 17:59N 53°07' W 005°58'510.3
2018-Jan-04 17:30N 53°02' W 005°57'5 9.7
2018-Jan-04 17:00N 52°57' W 005°56'30 8.8
2018-Jan-04 13:34N 52°28' W 006°07'1 9.0
2018-Jan-04 13:27N 52°27' W 006°07'4 9.2
2018-Jan-04 13:00N 52°23' W 006°09'5 9.2
2018-Jan-04 12:30N 52°18' W 006°11'5 9.6
2018-Jan-04 12:00N 52°14' W 006°14'510.0
2018-Jan-04 11:30N 52°10' W 006°18'510.6
2018-Jan-04 11:00N 52°06' W 006°25'611.6
2018-Jan-04 10:30N 52°04' W 006°33'611.4
2018-Jan-04 10:00N 52°03' W 006°43'611.9
2018-Jan-04 09:30N 52°04' W 006°52'4 8.1
2018-Jan-04 09:00N 52°06' W 006°58'2 4.5
2018-Jan-04 08:30N 52°08' W 006°58'2 4.5
2018-Jan-04 08:00N 52°10' W 006°57'4 8.1
2018-Jan-04 07:30N 52°14' W 006°57'3 6.7
2018-Jan-04 07:00N 52°17' W 007°00'4 7.6
2018-Jan-04 06:30N 52°20' W 006°60'  

Dump ship's entire track history